sensor_id;sensor_type;location;lat;lon;timestamp;temperature;humidity
52709;DHT22;38606;52.986;6.980;2022-07-04T00:00:38;15.40;99.90
52709;DHT22;38606;52.986;6.980;2022-07-04T00:03:04;15.20;99.90
52709;DHT22;38606;52.986;6.980;2022-07-04T00:05:31;15.20;99.90
52709;DHT22;38606;52.986;6.980;2022-07-04T00:07:56;15.20;99.90
52709;DHT22;38606;52.986;6.980;2022-07-04T00:10:22;15.10;99.90
52709;DHT22;38606;52.986;6.980;2022-07-04T00:12:48;15.20;99.90
52709;DHT22;38606;52.986;6.980;2022-07-04T00:15:14;15.10;99.90
52709;DHT22;38606;52.986;6.980;2022-07-04T00:17:40;15.10;99.90
52709;DHT22;38606;52.986;6.980;2022-07-04T00:20:07;15.00;99.90
52709;DHT22;38606;52.986;6.980;2022-07-04T00:22:34;15.10;99.90
52709;DHT22;38606;52.986;6.980;2022-07-04T00:25:00;14.90;99.90
52709;DHT22;38606;52.986;6.980;2022-07-04T00:27:25;15.10;99.90
52709;DHT22;38606;52.986;6.980;2022-07-04T00:29:51;14.90;99.90
52709;DHT22;38606;52.986;6.980;2022-07-04T00:32:17;15.20;99.90
52709;DHT22;38606;52.986;6.980;2022-07-04T00:34:43;14.90;99.90
52709;DHT22;38606;52.986;6.980;2022-07-04T00:37:09;15.00;99.90
52709;DHT22;38606;52.986;6.980;2022-07-04T00:39:35;14.80;99.90
52709;DHT22;38606;52.986;6.980;2022-07-04T00:42:01;14.80;99.90
52709;DHT22;38606;52.986;6.980;2022-07-04T00:44:27;15.00;99.90
52709;DHT22;38606;52.986;6.980;2022-07-04T00:46:53;14.90;99.90
52709;DHT22;38606;52.986;6.980;2022-07-04T00:49:19;14.60;99.90
52709;DHT22;38606;52.986;6.980;2022-07-04T00:51:46;14.90;99.90
52709;DHT22;38606;52.986;6.980;2022-07-04T00:54:14;14.80;99.90
52709;DHT22;38606;52.986;6.980;2022-07-04T00:56:42;14.90;99.90
52709;DHT22;38606;52.986;6.980;2022-07-04T00:59:09;14.50;99.90
52709;DHT22;38606;52.986;6.980;2022-07-04T01:01:35;14.60;99.90
52709;DHT22;38606;52.986;6.980;2022-07-04T01:04:02;14.70;99.90
52709;DHT22;38606;52.986;6.980;2022-07-04T01:06:28;14.60;99.90
52709;DHT22;38606;52.986;6.980;2022-07-04T01:08:54;14.80;99.90
52709;DHT22;38606;52.986;6.980;2022-07-04T01:11:20;14.40;99.90
52709;DHT22;38606;52.986;6.980;2022-07-04T01:13:45;14.50;99.90
52709;DHT22;38606;52.986;6.980;2022-07-04T01:16:11;14.50;99.90
52709;DHT22;38606;52.986;6.980;2022-07-04T01:18:38;14.50;99.90
52709;DHT22;38606;52.986;6.980;2022-07-04T01:21:04;14.50;99.90
52709;DHT22;38606;52.986;6.980;2022-07-04T01:23:30;14.60;99.90
52709;DHT22;38606;52.986;6.980;2022-07-04T01:25:57;14.40;99.90
52709;DHT22;38606;52.986;6.980;2022-07-04T01:28:24;14.40;99.90
52709;DHT22;38606;52.986;6.980;2022-07-04T01:30:50;14.30;99.90
52709;DHT22;38606;52.986;6.980;2022-07-04T01:33:16;14.10;99.90
52709;DHT22;38606;52.986;6.980;2022-07-04T01:35:45;14.50;99.90
52709;DHT22;38606;52.986;6.980;2022-07-04T01:38:11;14.10;99.90
52709;DHT22;38606;52.986;6.980;2022-07-04T01:40:37;14.50;99.90
52709;DHT22;38606;52.986;6.980;2022-07-04T01:43:02;14.10;99.90
52709;DHT22;38606;52.986;6.980;2022-07-04T01:45:28;14.40;99.90
52709;DHT22;38606;52.986;6.980;2022-07-04T01:47:54;14.20;99.90
52709;DHT22;38606;52.986;6.980;2022-07-04T01:50:20;13.90;99.90
52709;DHT22;38606;52.986;6.980;2022-07-04T01:52:46;14.10;99.90
52709;DHT22;38606;52.986;6.980;2022-07-04T01:55:12;14.00;99.90
52709;DHT22;38606;52.986;6.980;2022-07-04T01:57:38;14.00;99.90
52709;DHT22;38606;52.986;6.980;2022-07-04T02:00:09;14.60;99.90
52709;DHT22;38606;52.986;6.980;2022-07-04T02:02:54;14.00;99.90
52709;DHT22;38606;52.986;6.980;2022-07-04T02:05:20;14.30;99.90
52709;DHT22;38606;52.986;6.980;2022-07-04T02:07:47;14.10;99.90
52709;DHT22;38606;52.986;6.980;2022-07-04T02:10:13;13.90;99.90
52709;DHT22;38606;52.986;6.980;2022-07-04T02:12:39;14.00;99.90
52709;DHT22;38606;52.986;6.980;2022-07-04T02:15:23;14.00;99.90
52709;DHT22;38606;52.986;6.980;2022-07-04T02:17:49;14.10;99.90
52709;DHT22;38606;52.986;6.980;2022-07-04T02:20:15;15.30;99.90
52709;DHT22;38606;52.986;6.980;2022-07-04T02:22:40;14.10;99.90
52709;DHT22;38606;52.986;6.980;2022-07-04T02:25:07;14.10;99.90
52709;DHT22;38606;52.986;6.980;2022-07-04T02:27:32;13.90;99.90
52709;DHT22;38606;52.986;6.980;2022-07-04T02:29:58;13.90;99.90
52709;DHT22;38606;52.986;6.980;2022-07-04T02:32:24;13.90;99.90
52709;DHT22;38606;52.986;6.980;2022-07-04T02:34:50;13.80;99.90
52709;DHT22;38606;52.986;6.980;2022-07-04T02:37:17;13.90;99.90
52709;DHT22;38606;52.986;6.980;2022-07-04T02:39:42;14.10;99.90
52709;DHT22;38606;52.986;6.980;2022-07-04T02:42:08;13.90;99.90
52709;DHT22;38606;52.986;6.980;2022-07-04T02:44:34;13.80;99.90
52709;DHT22;38606;52.986;6.980;2022-07-04T02:47:00;13.80;99.90
52709;DHT22;38606;52.986;6.980;2022-07-04T02:49:26;13.60;99.90
52709;DHT22;38606;52.986;6.980;2022-07-04T02:51:52;13.80;99.90
52709;DHT22;38606;52.986;6.980;2022-07-04T02:54:17;13.60;99.90
52709;DHT22;38606;52.986;6.980;2022-07-04T02:56:43;13.70;99.90
52709;DHT22;38606;52.986;6.980;2022-07-04T02:59:09;15.10;99.90
52709;DHT22;38606;52.986;6.980;2022-07-04T03:01:34;13.70;99.90
52709;DHT22;38606;52.986;6.980;2022-07-04T03:04:00;13.80;99.90
52709;DHT22;38606;52.986;6.980;2022-07-04T03:06:28;14.00;99.90
52709;DHT22;38606;52.986;6.980;2022-07-04T03:08:53;13.70;99.90
52709;DHT22;38606;52.986;6.980;2022-07-04T03:11:19;13.60;99.90
52709;DHT22;38606;52.986;6.980;2022-07-04T03:13:45;13.70;99.90
52709;DHT22;38606;52.986;6.980;2022-07-04T03:16:11;14.00;99.90
52709;DHT22;38606;52.986;6.980;2022-07-04T03:18:37;13.70;99.90
52709;DHT22;38606;52.986;6.980;2022-07-04T03:21:03;14.00;99.90
52709;DHT22;38606;52.986;6.980;2022-07-04T03:23:31;13.80;99.90
52709;DHT22;38606;52.986;6.980;2022-07-04T03:25:57;13.60;99.90
52709;DHT22;38606;52.986;6.980;2022-07-04T03:28:23;13.60;99.90
52709;DHT22;38606;52.986;6.980;2022-07-04T03:30:49;13.50;99.90
52709;DHT22;38606;52.986;6.980;2022-07-04T03:33:14;13.70;99.90
52709;DHT22;38606;52.986;6.980;2022-07-04T03:35:40;13.50;99.90
52709;DHT22;38606;52.986;6.980;2022-07-04T03:38:06;13.40;99.90
52709;DHT22;38606;52.986;6.980;2022-07-04T03:40:32;13.70;99.90
52709;DHT22;38606;52.986;6.980;2022-07-04T03:42:58;13.70;99.90
52709;DHT22;38606;52.986;6.980;2022-07-04T03:45:24;13.60;99.90
52709;DHT22;38606;52.986;6.980;2022-07-04T03:47:50;13.70;99.90
52709;DHT22;38606;52.986;6.980;2022-07-04T03:50:17;13.50;99.90
52709;DHT22;38606;52.986;6.980;2022-07-04T03:52:43;13.60;99.90
52709;DHT22;38606;52.986;6.980;2022-07-04T03:55:09;13.90;99.90
52709;DHT22;38606;52.986;6.980;2022-07-04T03:57:35;13.50;99.90
52709;DHT22;38606;52.986;6.980;2022-07-04T04:00:01;13.70;99.90
52709;DHT22;38606;52.986;6.980;2022-07-04T04:02:26;13.90;99.90
52709;DHT22;38606;52.986;6.980;2022-07-04T04:04:52;13.50;99.90
52709;DHT22;38606;52.986;6.980;2022-07-04T04:07:36;13.80;99.90
52709;DHT22;38606;52.986;6.980;2022-07-04T04:10:02;13.70;99.90
52709;DHT22;38606;52.986;6.980;2022-07-04T04:12:27;13.80;99.90
52709;DHT22;38606;52.986;6.980;2022-07-04T04:14:53;13.90;99.90
52709;DHT22;38606;52.986;6.980;2022-07-04T04:17:19;13.90;99.90
52709;DHT22;38606;52.986;6.980;2022-07-04T04:19:45;13.80;99.90
52709;DHT22;38606;52.986;6.980;2022-07-04T04:22:10;14.10;99.90
52709;DHT22;38606;52.986;6.980;2022-07-04T04:24:36;14.00;99.90
52709;DHT22;38606;52.986;6.980;2022-07-04T04:27:02;14.20;99.90
52709;DHT22;38606;52.986;6.980;2022-07-04T04:29:28;14.30;99.90
52709;DHT22;38606;52.986;6.980;2022-07-04T04:31:54;14.20;99.90
52709;DHT22;38606;52.986;6.980;2022-07-04T04:34:19;14.50;99.90
52709;DHT22;38606;52.986;6.980;2022-07-04T04:36:45;14.50;99.90
52709;DHT22;38606;52.986;6.980;2022-07-04T04:39:11;14.30;99.90
52709;DHT22;38606;52.986;6.980;2022-07-04T04:41:36;14.40;99.90
52709;DHT22;38606;52.986;6.980;2022-07-04T04:44:02;14.50;99.90
52709;DHT22;38606;52.986;6.980;2022-07-04T04:46:29;14.60;99.90
52709;DHT22;38606;52.986;6.980;2022-07-04T04:48:55;14.70;99.90
52709;DHT22;38606;52.986;6.980;2022-07-04T04:51:21;14.60;99.90
52709;DHT22;38606;52.986;6.980;2022-07-04T04:53:46;14.70;99.90
52709;DHT22;38606;52.986;6.980;2022-07-04T04:56:12;14.80;99.90
52709;DHT22;38606;52.986;6.980;2022-07-04T04:58:38;15.20;99.90
52709;DHT22;38606;52.986;6.980;2022-07-04T05:01:04;15.30;99.90
52709;DHT22;38606;52.986;6.980;2022-07-04T05:03:30;15.10;99.90
52709;DHT22;38606;52.986;6.980;2022-07-04T05:05:56;15.60;99.90
52709;DHT22;38606;52.986;6.980;2022-07-04T05:08:21;15.40;99.90
52709;DHT22;38606;52.986;6.980;2022-07-04T05:10:50;15.90;99.90
52709;DHT22;38606;52.986;6.980;2022-07-04T05:13:15;15.70;99.90
52709;DHT22;38606;52.986;6.980;2022-07-04T05:15:41;15.70;99.90
52709;DHT22;38606;52.986;6.980;2022-07-04T05:18:07;15.80;99.90
52709;DHT22;38606;52.986;6.980;2022-07-04T05:20:32;16.00;99.90
52709;DHT22;38606;52.986;6.980;2022-07-04T05:22:59;15.90;99.90
52709;DHT22;38606;52.986;6.980;2022-07-04T05:25:25;16.10;99.90
52709;DHT22;38606;52.986;6.980;2022-07-04T05:27:51;16.30;99.90
52709;DHT22;38606;52.986;6.980;2022-07-04T05:30:17;18.40;99.90
52709;DHT22;38606;52.986;6.980;2022-07-04T05:32:42;16.10;99.90
52709;DHT22;38606;52.986;6.980;2022-07-04T05:35:08;16.20;99.90
52709;DHT22;38606;52.986;6.980;2022-07-04T05:37:35;16.50;99.90
52709;DHT22;38606;52.986;6.980;2022-07-04T05:40:02;16.60;99.90
52709;DHT22;38606;52.986;6.980;2022-07-04T05:42:28;16.60;99.90
52709;DHT22;38606;52.986;6.980;2022-07-04T05:44:54;16.90;99.90
52709;DHT22;38606;52.986;6.980;2022-07-04T05:47:20;16.70;99.90
52709;DHT22;38606;52.986;6.980;2022-07-04T05:49:49;17.10;99.90
52709;DHT22;38606;52.986;6.980;2022-07-04T05:52:15;17.10;99.90
52709;DHT22;38606;52.986;6.980;2022-07-04T05:54:41;17.10;99.90
52709;DHT22;38606;52.986;6.980;2022-07-04T05:57:07;17.20;99.90
52709;DHT22;38606;52.986;6.980;2022-07-04T05:59:32;17.50;99.90
52709;DHT22;38606;52.986;6.980;2022-07-04T06:01:58;17.70;99.90
52709;DHT22;38606;52.986;6.980;2022-07-04T06:04:24;17.50;99.90
52709;DHT22;38606;52.986;6.980;2022-07-04T06:06:50;17.50;99.90
52709;DHT22;38606;52.986;6.980;2022-07-04T06:09:16;18.00;99.90
52709;DHT22;38606;52.986;6.980;2022-07-04T06:11:42;17.80;99.90
52709;DHT22;38606;52.986;6.980;2022-07-04T06:14:07;17.70;99.90
52709;DHT22;38606;52.986;6.980;2022-07-04T06:16:33;18.10;99.90
52709;DHT22;38606;52.986;6.980;2022-07-04T06:18:59;18.10;99.90
52709;DHT22;38606;52.986;6.980;2022-07-04T06:21:24;17.90;99.90
52709;DHT22;38606;52.986;6.980;2022-07-04T06:23:50;18.30;99.90
52709;DHT22;38606;52.986;6.980;2022-07-04T06:26:16;18.40;99.90
52709;DHT22;38606;52.986;6.980;2022-07-04T06:28:41;18.50;99.90
52709;DHT22;38606;52.986;6.980;2022-07-04T06:31:07;18.80;99.90
52709;DHT22;38606;52.986;6.980;2022-07-04T06:33:33;18.60;99.90
52709;DHT22;38606;52.986;6.980;2022-07-04T06:36:19;18.80;99.90
52709;DHT22;38606;52.986;6.980;2022-07-04T06:38:44;19.10;99.90
52709;DHT22;38606;52.986;6.980;2022-07-04T06:41:10;19.00;99.90
52709;DHT22;38606;52.986;6.980;2022-07-04T06:43:36;19.40;99.90
52709;DHT22;38606;52.986;6.980;2022-07-04T06:46:02;19.50;99.90
52709;DHT22;38606;52.986;6.980;2022-07-04T06:48:28;19.60;99.90
52709;DHT22;38606;52.986;6.980;2022-07-04T06:50:54;19.60;99.90
52709;DHT22;38606;52.986;6.980;2022-07-04T06:53:20;19.50;99.90
52709;DHT22;38606;52.986;6.980;2022-07-04T06:55:46;19.80;99.90
52709;DHT22;38606;52.986;6.980;2022-07-04T06:58:11;19.90;99.90
52709;DHT22;38606;52.986;6.980;2022-07-04T07:00:40;20.10;99.90
52709;DHT22;38606;52.986;6.980;2022-07-04T07:03:07;20.10;99.90
52709;DHT22;38606;52.986;6.980;2022-07-04T07:05:33;19.90;99.90
52709;DHT22;38606;52.986;6.980;2022-07-04T07:08:03;19.90;99.90
52709;DHT22;38606;52.986;6.980;2022-07-04T07:10:29;19.90;99.90
52709;DHT22;38606;52.986;6.980;2022-07-04T07:12:54;19.90;99.90
52709;DHT22;38606;52.986;6.980;2022-07-04T07:15:20;20.00;99.90
52709;DHT22;38606;52.986;6.980;2022-07-04T07:17:46;19.80;99.90
52709;DHT22;38606;52.986;6.980;2022-07-04T07:20:12;20.20;99.90
52709;DHT22;38606;52.986;6.980;2022-07-04T07:22:39;20.40;99.90
52709;DHT22;38606;52.986;6.980;2022-07-04T07:25:06;20.40;99.90
52709;DHT22;38606;52.986;6.980;2022-07-04T07:27:32;20.80;99.90
52709;DHT22;38606;52.986;6.980;2022-07-04T07:29:57;20.80;99.90
52709;DHT22;38606;52.986;6.980;2022-07-04T07:32:23;21.10;99.90
52709;DHT22;38606;52.986;6.980;2022-07-04T07:34:48;21.00;99.90
52709;DHT22;38606;52.986;6.980;2022-07-04T07:37:14;21.00;99.90
52709;DHT22;38606;52.986;6.980;2022-07-04T07:39:43;21.30;99.90
52709;DHT22;38606;52.986;6.980;2022-07-04T07:42:09;21.00;99.90
52709;DHT22;38606;52.986;6.980;2022-07-04T07:44:34;21.20;99.90
52709;DHT22;38606;52.986;6.980;2022-07-04T07:47:00;21.30;99.90
52709;DHT22;38606;52.986;6.980;2022-07-04T07:49:26;21.30;99.90
52709;DHT22;38606;52.986;6.980;2022-07-04T07:51:52;21.70;99.90
52709;DHT22;38606;52.986;6.980;2022-07-04T07:54:17;21.70;99.90
52709;DHT22;38606;52.986;6.980;2022-07-04T07:56:44;21.60;99.90
52709;DHT22;38606;52.986;6.980;2022-07-04T07:59:10;21.80;99.90
52709;DHT22;38606;52.986;6.980;2022-07-04T08:01:35;20.60;99.90
52709;DHT22;38606;52.986;6.980;2022-07-04T08:04:01;21.70;99.90
52709;DHT22;38606;52.986;6.980;2022-07-04T08:06:46;21.80;99.90
52709;DHT22;38606;52.986;6.980;2022-07-04T08:09:11;21.80;99.90
52709;DHT22;38606;52.986;6.980;2022-07-04T08:11:40;21.90;99.90
52709;DHT22;38606;52.986;6.980;2022-07-04T08:14:06;22.10;99.90
52709;DHT22;38606;52.986;6.980;2022-07-04T08:16:33;21.90;99.90
52709;DHT22;38606;52.986;6.980;2022-07-04T08:18:59;21.90;99.90
52709;DHT22;38606;52.986;6.980;2022-07-04T08:21:25;22.10;99.90
52709;DHT22;38606;52.986;6.980;2022-07-04T08:23:50;22.20;99.90
52709;DHT22;38606;52.986;6.980;2022-07-04T08:26:16;22.40;99.90
52709;DHT22;38606;52.986;6.980;2022-07-04T08:28:42;22.40;99.90
52709;DHT22;38606;52.986;6.980;2022-07-04T08:31:07;22.30;99.90
52709;DHT22;38606;52.986;6.980;2022-07-04T08:33:33;21.90;99.90
52709;DHT22;38606;52.986;6.980;2022-07-04T08:35:59;21.90;99.90
52709;DHT22;38606;52.986;6.980;2022-07-04T08:38:25;22.20;99.90
52709;DHT22;38606;52.986;6.980;2022-07-04T08:40:56;21.80;99.90
52709;DHT22;38606;52.986;6.980;2022-07-04T08:43:23;21.50;99.90
52709;DHT22;38606;52.986;6.980;2022-07-04T08:45:53;21.40;99.90
52709;DHT22;38606;52.986;6.980;2022-07-04T08:48:23;21.30;99.90
52709;DHT22;38606;52.986;6.980;2022-07-04T08:50:54;21.30;99.90
52709;DHT22;38606;52.986;6.980;2022-07-04T08:53:21;21.40;99.90
52709;DHT22;38606;52.986;6.980;2022-07-04T08:55:48;21.30;99.90
52709;DHT22;38606;52.986;6.980;2022-07-04T08:58:33;21.20;99.90
52709;DHT22;38606;52.986;6.980;2022-07-04T09:01:04;21.60;99.90
52709;DHT22;38606;52.986;6.980;2022-07-04T09:03:30;21.60;99.90
52709;DHT22;38606;52.986;6.980;2022-07-04T09:05:57;21.90;99.90
52709;DHT22;38606;52.986;6.980;2022-07-04T09:08:24;21.90;99.90
52709;DHT22;38606;52.986;6.980;2022-07-04T09:10:51;22.20;99.90
52709;DHT22;38606;52.986;6.980;2022-07-04T09:13:18;22.30;99.90
52709;DHT22;38606;52.986;6.980;2022-07-04T09:15:49;22.30;99.90
52709;DHT22;38606;52.986;6.980;2022-07-04T09:18:23;22.60;99.90
52709;DHT22;38606;52.986;6.980;2022-07-04T09:20:50;22.30;99.90
52709;DHT22;38606;52.986;6.980;2022-07-04T09:23:27;22.80;99.90
52709;DHT22;38606;52.986;6.980;2022-07-04T09:26:21;22.30;99.90
52709;DHT22;38606;52.986;6.980;2022-07-04T09:28:56;22.50;99.90
52709;DHT22;38606;52.986;6.980;2022-07-04T09:31:26;22.40;99.90
52709;DHT22;38606;52.986;6.980;2022-07-04T09:33:57;22.20;99.90
52709;DHT22;38606;52.986;6.980;2022-07-04T09:36:25;22.20;99.90
52709;DHT22;38606;52.986;6.980;2022-07-04T09:39:10;22.40;99.90
52709;DHT22;38606;52.986;6.980;2022-07-04T09:41:54;22.40;99.90
52709;DHT22;38606;52.986;6.980;2022-07-04T09:44:24;22.60;99.90
52709;DHT22;38606;52.986;6.980;2022-07-04T09:46:50;22.70;99.90
52709;DHT22;38606;52.986;6.980;2022-07-04T09:49:17;22.50;99.90
52709;DHT22;38606;52.986;6.980;2022-07-04T09:51:44;22.40;99.90
52709;DHT22;38606;52.986;6.980;2022-07-04T09:54:15;22.30;99.90
52709;DHT22;38606;52.986;6.980;2022-07-04T09:56:45;22.10;99.90
52709;DHT22;38606;52.986;6.980;2022-07-04T09:59:11;22.30;99.90
52709;DHT22;38606;52.986;6.980;2022-07-04T10:01:37;22.50;99.90
52709;DHT22;38606;52.986;6.980;2022-07-04T10:04:06;22.20;99.90
52709;DHT22;38606;52.986;6.980;2022-07-04T10:06:33;22.00;99.90
52709;DHT22;38606;52.986;6.980;2022-07-04T10:09:16;22.10;99.90
52709;DHT22;38606;52.986;6.980;2022-07-04T10:11:43;22.20;99.90
52709;DHT22;38606;52.986;6.980;2022-07-04T10:14:12;21.80;99.90
52709;DHT22;38606;52.986;6.980;2022-07-04T10:16:40;21.90;99.90
52709;DHT22;38606;52.986;6.980;2022-07-04T10:19:07;21.80;99.90
52709;DHT22;38606;52.986;6.980;2022-07-04T10:21:33;22.20;99.90
52709;DHT22;38606;52.986;6.980;2022-07-04T10:24:00;22.40;99.90
52709;DHT22;38606;52.986;6.980;2022-07-04T10:26:27;22.40;99.90
52709;DHT22;38606;52.986;6.980;2022-07-04T10:28:53;22.40;99.90
52709;DHT22;38606;52.986;6.980;2022-07-04T10:31:22;22.70;99.90
52709;DHT22;38606;52.986;6.980;2022-07-04T10:33:49;22.70;99.90
52709;DHT22;38606;52.986;6.980;2022-07-04T10:36:18;23.00;99.90
52709;DHT22;38606;52.986;6.980;2022-07-04T10:38:48;22.90;99.90
52709;DHT22;38606;52.986;6.980;2022-07-04T10:41:14;23.30;99.90
52709;DHT22;38606;52.986;6.980;2022-07-04T10:46:42;23.30;99.90
52709;DHT22;38606;52.986;6.980;2022-07-04T10:51:54;24.00;99.90
52709;DHT22;38606;52.986;6.980;2022-07-04T10:54:31;23.60;99.90
52709;DHT22;38606;52.986;6.980;2022-07-04T10:57:10;23.90;99.90
52709;DHT22;38606;52.986;6.980;2022-07-04T10:59:37;24.20;99.90
52709;DHT22;38606;52.986;6.980;2022-07-04T11:07:14;23.80;97.70
52709;DHT22;38606;52.986;6.980;2022-07-04T11:09:40;23.90;97.80
52709;DHT22;38606;52.986;6.980;2022-07-04T11:12:08;23.80;98.40
52709;DHT22;38606;52.986;6.980;2022-07-04T11:14:45;23.90;98.40
52709;DHT22;38606;52.986;6.980;2022-07-04T11:17:12;23.70;98.20
52709;DHT22;38606;52.986;6.980;2022-07-04T11:19:38;23.80;97.90
52709;DHT22;38606;52.986;6.980;2022-07-04T11:22:05;23.60;98.20
52709;DHT22;38606;52.986;6.980;2022-07-04T11:24:31;23.60;98.50
52709;DHT22;38606;52.986;6.980;2022-07-04T11:26:57;23.60;97.40
52709;DHT22;38606;52.986;6.980;2022-07-04T11:29:24;23.80;97.20
52709;DHT22;38606;52.986;6.980;2022-07-04T11:31:51;24.10;96.70
52709;DHT22;38606;52.986;6.980;2022-07-04T11:34:18;24.00;96.80
52709;DHT22;38606;52.986;6.980;2022-07-04T11:36:46;24.10;96.60
52709;DHT22;38606;52.986;6.980;2022-07-04T11:39:15;24.10;96.50
52709;DHT22;38606;52.986;6.980;2022-07-04T11:41:52;22.50;97.00
52709;DHT22;38606;52.986;6.980;2022-07-04T11:44:38;24.20;97.30
52709;DHT22;38606;52.986;6.980;2022-07-04T11:50:07;24.30;94.40
52709;DHT22;38606;52.986;6.980;2022-07-04T11:55:12;24.00;95.50
52709;DHT22;38606;52.986;6.980;2022-07-04T11:57:48;24.10;95.50
52709;DHT22;38606;52.986;6.980;2022-07-04T12:00:18;24.20;94.70
52709;DHT22;38606;52.986;6.980;2022-07-04T12:02:45;24.20;95.20
52709;DHT22;38606;52.986;6.980;2022-07-04T12:05:13;24.20;95.10
52709;DHT22;38606;52.986;6.980;2022-07-04T12:07:45;24.20;94.90
52709;DHT22;38606;52.986;6.980;2022-07-04T12:10:23;24.60;93.90
52709;DHT22;38606;52.986;6.980;2022-07-04T12:13:01;24.50;92.90
52709;DHT22;38606;52.986;6.980;2022-07-04T12:15:46;24.40;94.30
52709;DHT22;38606;52.986;6.980;2022-07-04T12:18:32;24.60;93.70
52709;DHT22;38606;52.986;6.980;2022-07-04T12:21:15;24.50;93.30
52709;DHT22;38606;52.986;6.980;2022-07-04T12:23:51;24.50;93.60
52709;DHT22;38606;52.986;6.980;2022-07-04T12:26:17;24.40;94.70
52709;DHT22;38606;52.986;6.980;2022-07-04T12:28:42;24.10;93.40
52709;DHT22;38606;52.986;6.980;2022-07-04T12:31:08;24.50;92.40
52709;DHT22;38606;52.986;6.980;2022-07-04T12:33:34;24.50;91.50
52709;DHT22;38606;52.986;6.980;2022-07-04T12:36:02;24.20;91.60
52709;DHT22;38606;52.986;6.980;2022-07-04T12:43:43;24.60;90.50
52709;DHT22;38606;52.986;6.980;2022-07-04T12:46:14;24.50;90.20
52709;DHT22;38606;52.986;6.980;2022-07-04T12:48:40;24.40;91.40
52709;DHT22;38606;52.986;6.980;2022-07-04T12:51:15;24.40;91.20
52709;DHT22;38606;52.986;6.980;2022-07-04T12:53:42;24.20;91.10
52709;DHT22;38606;52.986;6.980;2022-07-04T12:56:09;24.20;91.30
52709;DHT22;38606;52.986;6.980;2022-07-04T12:58:36;24.40;91.40
52709;DHT22;38606;52.986;6.980;2022-07-04T13:01:02;24.20;90.70
52709;DHT22;38606;52.986;6.980;2022-07-04T13:03:28;24.30;90.40
52709;DHT22;38606;52.986;6.980;2022-07-04T13:05:54;24.70;90.00
52709;DHT22;38606;52.986;6.980;2022-07-04T13:08:22;24.30;89.30
52709;DHT22;38606;52.986;6.980;2022-07-04T13:10:48;24.30;90.00
52709;DHT22;38606;52.986;6.980;2022-07-04T13:13:34;24.50;88.90
52709;DHT22;38606;52.986;6.980;2022-07-04T13:16:00;24.40;89.70
52709;DHT22;38606;52.986;6.980;2022-07-04T13:18:26;24.40;89.10
52709;DHT22;38606;52.986;6.980;2022-07-04T13:20:51;24.40;89.10
52709;DHT22;38606;52.986;6.980;2022-07-04T13:23:17;24.00;86.60
52709;DHT22;38606;52.986;6.980;2022-07-04T13:25:43;24.40;87.50
52709;DHT22;38606;52.986;6.980;2022-07-04T13:28:09;24.20;87.90
52709;DHT22;38606;52.986;6.980;2022-07-04T13:30:34;24.40;89.00
52709;DHT22;38606;52.986;6.980;2022-07-04T13:33:00;24.20;87.80
52709;DHT22;38606;52.986;6.980;2022-07-04T13:35:26;24.60;88.30
52709;DHT22;38606;52.986;6.980;2022-07-04T13:37:52;24.30;87.20
52709;DHT22;38606;52.986;6.980;2022-07-04T13:40:17;24.30;87.70
52709;DHT22;38606;52.986;6.980;2022-07-04T13:42:43;24.50;86.40
52709;DHT22;38606;52.986;6.980;2022-07-04T13:45:24;24.10;85.40
52709;DHT22;38606;52.986;6.980;2022-07-04T13:47:51;24.30;87.90
52709;DHT22;38606;52.986;6.980;2022-07-04T13:50:17;24.30;88.50
52709;DHT22;38606;52.986;6.980;2022-07-04T13:52:44;24.40;88.60
52709;DHT22;38606;52.986;6.980;2022-07-04T13:55:09;24.40;87.30
52709;DHT22;38606;52.986;6.980;2022-07-04T13:57:36;24.40;87.20
52709;DHT22;38606;52.986;6.980;2022-07-04T14:00:04;24.50;87.10
52709;DHT22;38606;52.986;6.980;2022-07-04T14:02:30;24.30;85.30
52709;DHT22;38606;52.986;6.980;2022-07-04T14:04:56;24.10;86.80
52709;DHT22;38606;52.986;6.980;2022-07-04T14:07:22;24.10;86.50
52709;DHT22;38606;52.986;6.980;2022-07-04T14:09:47;24.00;86.20
52709;DHT22;38606;52.986;6.980;2022-07-04T14:12:13;24.20;85.80
52709;DHT22;38606;52.986;6.980;2022-07-04T14:14:40;24.10;86.80
52709;DHT22;38606;52.986;6.980;2022-07-04T14:17:06;23.90;85.80
52709;DHT22;38606;52.986;6.980;2022-07-04T14:19:32;24.00;85.70
52709;DHT22;38606;52.986;6.980;2022-07-04T14:21:58;23.90;85.60
52709;DHT22;38606;52.986;6.980;2022-07-04T14:24:24;24.30;85.30
52709;DHT22;38606;52.986;6.980;2022-07-04T14:26:52;24.10;85.00
52709;DHT22;38606;52.986;6.980;2022-07-04T14:29:18;24.10;84.50
52709;DHT22;38606;52.986;6.980;2022-07-04T14:31:43;24.10;83.90
52709;DHT22;38606;52.986;6.980;2022-07-04T14:34:09;23.80;83.20
52709;DHT22;38606;52.986;6.980;2022-07-04T14:36:38;24.00;83.10
52709;DHT22;38606;52.986;6.980;2022-07-04T14:39:04;23.90;83.10
52709;DHT22;38606;52.986;6.980;2022-07-04T14:41:30;23.90;83.10
52709;DHT22;38606;52.986;6.980;2022-07-04T14:43:55;23.50;82.80
52709;DHT22;38606;52.986;6.980;2022-07-04T14:46:21;23.90;83.30
52709;DHT22;38606;52.986;6.980;2022-07-04T14:48:47;23.80;83.10
52709;DHT22;38606;52.986;6.980;2022-07-04T14:51:12;23.70;82.60
52709;DHT22;38606;52.986;6.980;2022-07-04T14:53:38;23.60;82.20
52709;DHT22;38606;52.986;6.980;2022-07-04T14:56:04;23.70;84.00
52709;DHT22;38606;52.986;6.980;2022-07-04T14:58:30;23.40;82.70
52709;DHT22;38606;52.986;6.980;2022-07-04T15:00:56;23.40;84.00
52709;DHT22;38606;52.986;6.980;2022-07-04T15:03:22;23.60;84.50
52709;DHT22;38606;52.986;6.980;2022-07-04T15:05:48;24.00;84.10
52709;DHT22;38606;52.986;6.980;2022-07-04T15:08:14;23.60;83.20
52709;DHT22;38606;52.986;6.980;2022-07-04T15:10:39;23.60;83.30
52709;DHT22;38606;52.986;6.980;2022-07-04T15:13:05;23.50;83.80
52709;DHT22;38606;52.986;6.980;2022-07-04T15:15:31;23.60;83.90
52709;DHT22;38606;52.986;6.980;2022-07-04T15:17:57;23.30;83.10
52709;DHT22;38606;52.986;6.980;2022-07-04T15:20:23;23.70;83.90
52709;DHT22;38606;52.986;6.980;2022-07-04T15:23:07;23.50;82.90
52709;DHT22;38606;52.986;6.980;2022-07-04T15:25:52;23.40;82.70
52709;DHT22;38606;52.986;6.980;2022-07-04T15:28:17;23.30;84.90
52709;DHT22;38606;52.986;6.980;2022-07-04T15:30:43;23.40;85.00
52709;DHT22;38606;52.986;6.980;2022-07-04T15:33:09;23.50;84.70
52709;DHT22;38606;52.986;6.980;2022-07-04T15:35:41;23.30;84.10
52709;DHT22;38606;52.986;6.980;2022-07-04T15:38:07;23.20;84.20
52709;DHT22;38606;52.986;6.980;2022-07-04T15:40:33;23.20;83.80
52709;DHT22;38606;52.986;6.980;2022-07-04T15:42:59;22.90;83.20
52709;DHT22;38606;52.986;6.980;2022-07-04T15:45:24;23.20;83.50
52709;DHT22;38606;52.986;6.980;2022-07-04T15:47:50;23.00;83.70
52709;DHT22;38606;52.986;6.980;2022-07-04T15:50:16;22.80;83.60
52709;DHT22;38606;52.986;6.980;2022-07-04T15:52:42;20.60;82.10